• Join FlightAware (Why Join?)
  • Login
  • US Flag 
05:26AM EST


 

Airport Tracker/Info


-or-


 

Live Flight TrackerFlight Track Log ✈ FFT750 ✈ 08-May-2013 ✈ KDEN - KOMA

Flight Track Log - Related Links

Times and Time Zones

All times are in EDT time to prevent confusion due to time zone crossing. See the FFT750 flight status page for this flight to view local times or setup timezone preferences in your user account.

Time Position Orientation Groundspeed Altitude Reporting Facility
EDT Latitude Longitude Course Direction KTS MPH feet Rate Location/Type
12:40PM 39.8833 -104.5667 79° East 191 220 7,100  Level Denver TRACON
12:41PM 39.9000 -104.4833 75° East 270 311 8,900 1,980 Climbing Denver TRACON
12:42PM 39.9167 -104.3833 78° East 293 337 10,900 2,280 Climbing Denver TRACON
12:43PM 39.9269 -104.3353 74° East 301 346 12,100 2,580 Climbing Denver Center
12:44PM 39.9456 -104.2208 78° East 322 371 14,900 2,640 Climbing Denver Center
12:45PM 39.9678 -104.0942 77° East 332 382 17,600 2,340 Climbing Denver Center
12:46PM 39.9992 -103.8221 79° East  Level FlightAware Approximate
12:46PM 39.9878 -103.9683 78° East 353 406 19,800  Level Denver Center
12:47PM 40.0128 -103.8253 77° East 374 430 22,400 2,340 Climbing Denver Center
12:48PM 40.0333 -103.6889 79° East 375 432 24,700 2,040 Climbing Denver Center
12:49PM 40.0561 -103.5553 77° East 392 451 26,700 1,380 Climbing Denver Center
12:51PM 40.1053 -103.2536 78° East 413 475 29,000 720 Climbing Denver Center
12:52PM 40.1314 -103.0886 78° East 414 476 29,000  Level Denver Center
12:53PM 40.1536 -102.9453 78° East 420 483 29,000 720 Level Denver Center
12:54PM 40.1800 -102.7786 78° East 422 486 30,500 1,500 Climbing Denver Center
12:55PM 40.2028 -102.6308 79° East 432 497 32,200 1,620 Climbing Denver Center
12:56PM 40.2297 -102.4586 78° East 433 498 33,900 1,200 Climbing Denver Center
12:57PM 40.2531 -102.3081 78° East 442 509 34,800 1,200 Climbing Denver Center
12:58PM 40.2797 -102.1294 79° East 449 517 36,500 1,200 Climbing Denver Center
12:59PM 40.3019 -101.9775 79° East 446 513 37,300 1,200 Climbing Denver Center
01:00PM 40.3283 -101.7992 79° East 446 513 39,000 780 Climbing Denver Center
01:01PM 40.3503 -101.6497 79° East 439 505 39,000  Level Denver Center
01:02PM 40.3717 -101.4958 80° East 448 516 39,000  Level Denver Center
01:03PM 40.3975 -101.3189 79° East 446 513 39,000  Level Denver Center
01:04PM 40.4200 -101.1672 79° East 444 511 39,000  Level Denver Center
01:05PM 40.4447 -100.9894 80° East 445 512 39,000  Level Denver Center
01:06PM 40.4714 -100.8392 77° East 445 512 39,000  Level Denver Center
01:07PM 40.5089 -100.6664 74° East 444 511 39,000 -540 Level Denver Center
01:09PM 40.5461 -100.4925 74° East 446 513 37,900 -1,200 Descending Denver Center
01:10PM 40.5775 -100.3436 74° East 445 512 36,600 -1,260 Descending Denver Center
01:11PM 40.6136 -100.1747 74° East 435 501 35,400 -780 Descending Denver Center
01:12PM 40.6433 -100.0269 75° East 437 503 35,000 -240 Descending Denver Center
01:13PM 40.6783 -99.8547 75° East 438 504 35,000  Level Denver Center
01:14PM 40.7097 -99.7053 74° East 433 498 35,000  Level Denver Center
01:15PM 40.7403 -99.5528 75° East 430 495 35,000  Level Denver Center
01:16PM 40.7725 -99.4008 74° East 431 496 35,000  Level Denver Center
01:17PM 40.8019 -99.2478 76° East 431 496 35,000  Level Denver Center
01:18PM 40.8375 -99.0736 75° East 436 502 35,000  Level Denver Center
01:19PM 40.8667 -98.9253 75° East 437 503 35,000  Level Denver Center
01:20PM 40.9025 -98.7369 76° East 439 505 35,000  Level Minneapolis Center
01:21PM 40.9317 -98.5808 76° East 439 505 35,000  Level Minneapolis Center
01:22PM 40.9622 -98.4250 75° East 439 505 35,000  Level Minneapolis Center
01:23PM 40.9942 -98.2697 75° East 438 504 35,000  Level Minneapolis Center
01:24PM 41.0328 -98.1175 71° East 437 503 35,000 -720 Level Minneapolis Center
01:25PM 41.0758 -97.9661 69° East 438 504 33,600 -2,040 Descending Minneapolis Center
01:26PM 41.1253 -97.7828 70° East 439 505 30,900 -2,520 Descending Minneapolis Center
01:27PM 41.1658 -97.6269 71° East 443 510 28,500 -2,400 Descending Minneapolis Center
01:28PM 41.2069 -97.4731 70° East 444 511 26,000 -2,460 Descending Minneapolis Center
01:29PM 41.2472 -97.3219 70° East 440 506 23,500 -2,280 Descending Minneapolis Center
01:30PM 41.2850 -97.1775 71° East 429 494 21,300 -2,280 Descending Minneapolis Center
01:31PM 41.3203 -97.0361 72° East 416 479 18,800 -2,700 Descending Minneapolis Center
01:32PM 41.3306 -96.9475 81° East 397 457 17,100 -2,280 Descending Minneapolis Center
01:32PM 41.3561 -96.8986 55° Northeast 405 466 16,500 -1,500 Descending Minneapolis Center
01:33PM 41.3419 -96.7828 99° East 355 409 15,300 -1,680 Descending Minneapolis Center
01:33PM 41.3469 -96.7422 81° East 373 429 14,800 -2,100 Descending Minneapolis Center
01:34PM 41.3194 -96.6464 111° Southeast 344 396 13,000 -2,220 Descending Minneapolis Center
01:35PM 41.3017 -96.5261 101° East 329 379 10,900 -1,860 Descending Minneapolis Center
01:35PM 41.3044 -96.5003 82° East 342 394 10,700 -1,680 Descending Minneapolis Center
01:36PM 41.2825 -96.4175 109° East 302 348 9,200 -1,800 Descending Minneapolis Center
01:36PM 41.2856 -96.3897 82° East 327 376 8,900 -1,920 Descending Minneapolis Center
01:37PM 41.2650 -96.3028 107° East 295 339 7,300 -1,860 Descending Minneapolis Center
01:38PM 41.2722 -96.2867 59° Northeast 306 352 7,000 -2,100 Descending Minneapolis Center
01:38PM 41.3056 -96.2153 58° Northeast 283 326 5,200 -2,040 Descending Minneapolis Center
01:39PM 41.3156 -96.1994 50° Northeast 291 335 4,900 -1,140 Descending Minneapolis Center
01:39PM 41.3642 -96.1531 36° Northeast 263 303 4,100 -900 Descending Minneapolis Center
01:40PM 41.3883 -96.1294 36° Northeast 271 312 4,000 -120 Descending Minneapolis Center
01:40PM 41.4136 -96.1086 32° Northeast 222 255 4,000 -120 Level Minneapolis Center
01:41PM 41.4389 -96.0817 39° Northeast 237 273 3,900 -240 Descending Minneapolis Center
01:41PM 41.4350 -96.0478 99° East 205 236 3,800 -540 Descending Minneapolis Center
01:42PM 41.4236 -96.0106 112° Southeast 219 252 3,400 -840 Descending Minneapolis Center
01:42PM 41.3956 -95.9911 153° Southeast 188 216 2,900 -780 Descending Minneapolis Center
01:43PM 41.3803 -95.9686 132° Southeast 199 229 2,600 -900 Descending Minneapolis Center
01:43PM 41.3561 -95.9625 169° South 149 171 2,000 -780 Descending Minneapolis Center
01:44PM 41.3486 -95.9392 113° Southeast 167 192 1,800 -600 Descending Minneapolis Center
01:44PM 41.3308 -95.9292 157° South 117 135 1,400 -600 Descending Minneapolis Center
01:45PM 41.3211 -95.9125 128° Southeast 140 161 1,200 -480 Descending Minneapolis Center